Hauptseite
METAR-TAF:

METAR-TAF

Flughäfen :

Valley, Wales

Breite: 53-15N, Länge: 004-32W, Höhe: 1 m

Beobachtung

Neuester Wetterbericht von vor 48 Minuten, um 18:50 UTC
Wind 5 kt aus Südwest
Temperatur 12°C
Luftfeuchtigkeit 88%
Luftdruck 1018 hPa
Sichtweite 10 km oder mehr

METAR: EGOV 221850Z AUTO 23005KT 9999 BKN100/// SCT130/// 12/10 Q1018

Zeit: 20:38 (19:38 UTC)

Prognose

Neuester Wetterbericht von vor 5 Stunden und 56 Minuten, um 13:42 UTC
Gültige Prognose vom 22 um 15 UTC bis 22 um 19 UTC
Wind 10 kt aus Süd/Südwest
Sichtweite 10 km oder mehr
Leicht bewölkt in der Höhe von 500 ft

TAF: EGOV 221342Z 2215/2219 21010KT 9999 FEW005

Wetterbeobachtungen und Prognosen von mehr als 4000 Flughäfen (METAR und TAF Bericht).

Die verfügbaren Stationen werden durch gelbe und rote Markierungen auf der Karte dargestellt.

Führen Sie die Maus auf sie, um den Namen der Station zu sehen.

Darauf klicken, um die Beobachtung von Wetterbeobachtungen und Prognosen zu sehen.

Um die Karte zu ändern : klicken Sie auf den grünen Tasten mit einem schwarzen Kreuz Zum Vergrößern, auf den grünen Button mit einem Gedankenstrich zu verkleinern, oder auf die grünen Pfeile für benachbarte Karten.


METAR-TAF: